createdAt,value
2022-09-28T00:01:07.846Z,100656.34
2022-09-28T00:03:36.114Z,100652.06
2022-09-28T00:06:06.938Z,100651.34
2022-09-28T00:08:35.911Z,100647.91
2022-09-28T00:11:05.890Z,100653.94
2022-09-28T00:13:34.130Z,100655.63
2022-09-28T00:16:03.941Z,100648.00
2022-09-28T00:18:32.557Z,100663.84
2022-09-28T00:21:08.552Z,100665.63
2022-09-28T00:23:57.688Z,100663.84
2022-09-28T00:26:26.124Z,100661.44
2022-09-28T00:28:54.940Z,100665.00
2022-09-28T00:31:23.337Z,100671.94
2022-09-28T00:33:51.826Z,100672.75
2022-09-28T00:36:21.164Z,100667.50
2022-09-28T00:38:49.108Z,100666.56
2022-09-28T00:41:18.568Z,100664.78
2022-09-28T00:43:46.343Z,100665.63
2022-09-28T00:46:19.665Z,100663.00
2022-09-28T00:48:53.886Z,100659.41
2022-09-28T00:51:26.315Z,100663.00
2022-09-28T00:53:56.202Z,100655.97
2022-09-28T00:56:28.177Z,100657.75
2022-09-28T00:58:56.386Z,100655.97
2022-09-28T01:01:24.218Z,100660.59
2022-09-28T01:03:52.182Z,100660.59
2022-09-28T01:06:22.346Z,100655.38
2022-09-28T01:08:54.463Z,100656.31
2022-09-28T01:11:22.415Z,100658.09
2022-09-28T01:13:54.103Z,100661.78
2022-09-28T01:16:34.631Z,100663.56
2022-09-28T01:19:17.354Z,100662.03
2022-09-28T01:21:53.441Z,100659.50
2022-09-28T01:24:40.229Z,100661.28
2022-09-28T01:27:16.625Z,100671.06
2022-09-28T01:29:52.440Z,100666.06
2022-09-28T01:32:29.922Z,100663.53
2022-09-28T01:35:01.360Z,100665.31
2022-09-28T01:37:35.146Z,100666.28
2022-09-28T01:40:04.843Z,100669.00
2022-09-28T01:42:37.878Z,100671.00
2022-09-28T01:45:14.613Z,100663.38
2022-09-28T01:47:44.283Z,100665.03
2022-09-28T01:50:15.611Z,100673.84
2022-09-28T01:52:51.320Z,100671.34
2022-09-28T01:55:27.312Z,100669.56
2022-09-28T01:58:01.492Z,100663.38
2022-09-28T02:00:29.654Z,100676.47
2022-09-28T02:03:02.943Z,100673.00
2022-09-28T02:05:34.045Z,100678.13
2022-09-28T02:08:07.966Z,100673.00
2022-09-28T02:10:42.902Z,100686.09
2022-09-28T02:13:17.403Z,100677.44
2022-09-28T02:15:51.602Z,100677.53
2022-09-28T02:18:19.678Z,100676.47
2022-09-28T02:21:06.212Z,100676.97
2022-09-28T02:23:38.309Z,100680.19
2022-09-28T02:26:10.150Z,100679.97
2022-09-28T02:28:39.488Z,100684.16
2022-09-28T02:31:07.543Z,100684.03
2022-09-28T02:33:38.771Z,100676.19
2022-09-28T02:36:07.534Z,100677.84
2022-09-28T02:38:35.484Z,100677.84
2022-09-28T02:41:07.066Z,100684.03
2022-09-28T02:43:51.205Z,100674.25
2022-09-28T02:46:29.653Z,100679.50
2022-09-28T02:49:21.290Z,100678.81
2022-09-28T02:52:06.240Z,100685.94
2022-09-28T02:54:59.019Z,100679.84
2022-09-28T02:57:38.432Z,100681.53
2022-09-28T03:00:10.652Z,100681.66
2022-09-28T03:02:49.843Z,100677.34
2022-09-28T03:05:23.090Z,100679.16
2022-09-28T03:07:58.795Z,100672.94
2022-09-28T03:10:33.752Z,100674.50
2022-09-28T03:13:02.801Z,100677.00
2022-09-28T03:15:33.099Z,100682.13
2022-09-28T03:18:01.395Z,100681.66
2022-09-28T03:20:30.922Z,100679.31
2022-09-28T03:25:46.827Z,100672.44
2022-09-28T03:28:14.609Z,100675.69
2022-09-28T03:30:44.035Z,100681.38
2022-09-28T03:33:11.835Z,100678.53
2022-09-28T03:35:39.694Z,100680.81
2022-09-28T03:38:07.585Z,100683.31
2022-09-28T03:40:35.424Z,100678.91
2022-09-28T03:43:03.222Z,100674.28
2022-09-28T03:45:31.100Z,100683.47
2022-09-28T03:48:00.379Z,100685.72
2022-09-28T03:50:28.472Z,100681.69
2022-09-28T03:52:56.259Z,100683.09
2022-09-28T03:55:24.085Z,100688.13
2022-09-28T03:57:56.025Z,100681.81
2022-09-28T04:00:24.210Z,100682.28
2022-09-28T04:02:52.034Z,100693.50
2022-09-28T04:05:21.278Z,100681.94
2022-09-28T04:07:49.080Z,100686.13
2022-09-28T04:10:17.353Z,100686.00
2022-09-28T04:12:45.958Z,100687.66
2022-09-28T04:15:13.939Z,100690.91
2022-09-28T04:17:41.731Z,100680.41
2022-09-28T04:20:10.258Z,100690.69
2022-09-28T04:22:39.813Z,100691.50
2022-09-28T04:25:07.964Z,100686.97
2022-09-28T04:27:53.319Z,100689.59
2022-09-28T04:30:21.898Z,100686.03
2022-09-28T04:32:49.978Z,100693.66
2022-09-28T04:35:17.846Z,100693.53
2022-09-28T04:37:47.019Z,100689.94
2022-09-28T04:40:15.119Z,100687.94
2022-09-28T04:42:43.015Z,100690.66
2022-09-28T04:45:11.803Z,100694.00
2022-09-28T04:47:39.666Z,100699.16
2022-09-28T04:50:08.500Z,100690.19
2022-09-28T04:52:37.579Z,100697.09
2022-09-28T04:55:07.963Z,100696.16
2022-09-28T04:57:36.000Z,100696.16
2022-09-28T05:00:04.459Z,100697.81
2022-09-28T05:02:32.570Z,100699.59
2022-09-28T05:05:00.940Z,100693.53
2022-09-28T05:07:28.810Z,100699.72
2022-09-28T05:09:56.617Z,100692.56
2022-09-28T05:12:26.471Z,100696.03
2022-09-28T05:14:54.296Z,100698.66
2022-09-28T05:17:22.108Z,100693.31
2022-09-28T05:19:52.771Z,100697.47
2022-09-28T05:22:20.624Z,100693.06
2022-09-28T05:24:48.427Z,100698.19
2022-09-28T05:27:16.262Z,100697.34
2022-09-28T05:29:45.451Z,100691.13
2022-09-28T05:32:13.307Z,100694.47
2022-09-28T05:34:41.103Z,100693.63
2022-09-28T05:37:08.912Z,100691.00
2022-09-28T05:39:36.731Z,100693.50
2022-09-28T05:42:04.832Z,100696.84
2022-09-28T05:44:32.713Z,100693.25
2022-09-28T05:47:01.890Z,100697.69
2022-09-28T05:49:31.779Z,100695.88
2022-09-28T05:51:59.585Z,100701.03
2022-09-28T05:54:27.394Z,100701.03
2022-09-28T05:56:55.238Z,100699.13
2022-09-28T05:59:23.047Z,100699.00
2022-09-28T06:01:50.856Z,100707.72
2022-09-28T06:04:20.962Z,100712.00
2022-09-28T06:06:48.794Z,100702.22
2022-09-28T06:09:16.599Z,100713.28
2022-09-28T06:11:44.435Z,100706.16
2022-09-28T06:14:13.783Z,100704.25
2022-09-28T06:16:43.824Z,100709.22
2022-09-28T06:19:12.942Z,100707.31
2022-09-28T06:21:42.210Z,100708.84
2022-09-28T06:24:10.091Z,100709.44
2022-09-28T06:26:37.972Z,100703.13
2022-09-28T06:29:05.835Z,100714.34
2022-09-28T06:31:33.719Z,100702.06
2022-09-28T06:34:02.103Z,100705.25
2022-09-28T06:36:31.410Z,100713.84
2022-09-28T06:39:00.739Z,100705.84
2022-09-28T06:41:28.654Z,100708.34
2022-09-28T06:43:56.451Z,100706.44
2022-09-28T06:46:24.448Z,100712.38
2022-09-28T06:48:52.784Z,100711.31
2022-09-28T06:51:20.602Z,100711.09
2022-09-28T06:53:48.403Z,100714.28
2022-09-28T06:56:18.199Z,100717.63
2022-09-28T06:58:46.010Z,100711.16
2022-09-28T07:01:13.878Z,100710.91
2022-09-28T07:03:41.807Z,100716.75
2022-09-28T07:06:12.652Z,100709.44
2022-09-28T07:08:40.847Z,100714.19
2022-09-28T07:11:09.996Z,100707.75
2022-09-28T07:13:50.933Z,100708.31
2022-09-28T07:16:24.088Z,100716.91
2022-09-28T07:18:54.434Z,100711.41
2022-09-28T07:21:29.869Z,100716.28
2022-09-28T07:23:58.246Z,100719.63
2022-09-28T07:26:26.903Z,100721.88
2022-09-28T07:28:56.319Z,100720.78
2022-09-28T07:31:25.523Z,100728.44
2022-09-28T07:33:54.130Z,100722.22
2022-09-28T07:36:22.850Z,100723.78
2022-09-28T07:38:50.919Z,100723.66
2022-09-28T07:41:21.806Z,100722.69
2022-09-28T07:43:50.201Z,100726.97
2022-09-28T07:46:20.664Z,100715.34
2022-09-28T07:48:49.712Z,100724.94
2022-09-28T07:51:19.798Z,100718.31
2022-09-28T07:53:48.106Z,100730.81
2022-09-28T07:56:17.466Z,100719.78
2022-09-28T07:58:45.262Z,100723.69
2022-09-28T08:01:15.022Z,100722.03
2022-09-28T08:03:47.218Z,100735.06
2022-09-28T08:06:17.139Z,100723.56
2022-09-28T08:08:45.582Z,100733.13
2022-09-28T08:11:14.375Z,100736.31
2022-09-28T08:13:42.535Z,100734.66
2022-09-28T08:16:11.260Z,100733.00
2022-09-28T08:18:39.101Z,100737.56
2022-09-28T08:21:25.558Z,100737.28
2022-09-28T08:23:54.038Z,100735.81
2022-09-28T08:26:21.859Z,100738.50
2022-09-28T08:28:50.162Z,100734.13
2022-09-28T08:31:18.115Z,100732.88
2022-09-28T08:33:45.983Z,100739.19
2022-09-28T08:36:15.572Z,100733.78
2022-09-28T08:38:43.595Z,100738.66
2022-09-28T08:41:20.024Z,100735.34
2022-09-28T08:44:04.614Z,100729.13
2022-09-28T08:46:41.205Z,100736.09
2022-09-28T08:49:24.917Z,100733.91
2022-09-28T08:51:59.525Z,100737.25
2022-09-28T08:54:35.049Z,100737.09
2022-09-28T08:57:06.657Z,100731.97
2022-09-28T08:59:46.691Z,100731.84
2022-09-28T09:02:19.468Z,100736.34
2022-09-28T09:04:47.513Z,100738.84
2022-09-28T09:07:33.102Z,100738.16
2022-09-28T09:10:09.183Z,100733.47
2022-09-28T09:12:49.561Z,100738.47
2022-09-28T09:15:31.927Z,100734.00
2022-09-28T09:18:16.633Z,100734.81
2022-09-28T09:20:51.787Z,100734.69
2022-09-28T09:23:31.461Z,100720.69
2022-09-28T09:26:04.802Z,100738.16
2022-09-28T09:29:02.251Z,100730.94
2022-09-28T09:31:48.918Z,100726.47
2022-09-28T09:34:35.343Z,100733.06
2022-09-28T09:37:18.467Z,100743.59
2022-09-28T09:40:03.119Z,100743.59
2022-09-28T09:42:49.126Z,100733.84
2022-09-28T09:45:32.346Z,100732.47
2022-09-28T09:48:04.795Z,100728.72
2022-09-28T09:50:39.931Z,100737.47
2022-09-28T09:53:21.059Z,100730.03
2022-09-28T09:55:57.243Z,100723.97
2022-09-28T09:58:29.756Z,100729.81
2022-09-28T10:01:08.388Z,100733.00
2022-09-28T10:03:40.784Z,100733.63
2022-09-28T10:06:13.925Z,100741.22
2022-09-28T10:08:45.423Z,100734.41
2022-09-28T10:11:19.106Z,100736.63
2022-09-28T10:13:49.285Z,100739.78
2022-09-28T10:16:19.342Z,100735.09
2022-09-28T10:18:47.386Z,100735.28
2022-09-28T10:21:15.591Z,100729.75
2022-09-28T10:23:44.519Z,100736.16
2022-09-28T10:26:25.325Z,100731.06
2022-09-28T10:28:56.737Z,100734.28
2022-09-28T10:31:42.050Z,100724.16
2022-09-28T10:34:14.200Z,100731.09
2022-09-28T10:36:52.105Z,100730.56
2022-09-28T10:39:32.918Z,100729.28
2022-09-28T10:42:04.650Z,100720.13
2022-09-28T10:44:35.328Z,100723.72
2022-09-28T10:47:08.024Z,100731.78
2022-09-28T10:49:47.101Z,100723.16
2022-09-28T10:52:35.179Z,100724.84
2022-09-28T10:55:23.671Z,100710.44
2022-09-28T10:57:53.117Z,100714.03
2022-09-28T11:00:36.510Z,100710.72
2022-09-28T11:03:05.231Z,100712.50
2022-09-28T11:05:33.505Z,100711.56
2022-09-28T11:08:08.282Z,100707.53
2022-09-28T11:10:36.192Z,100703.78
2022-09-28T11:13:10.510Z,100702.81
2022-09-28T11:15:44.103Z,100703.22
2022-09-28T11:18:26.562Z,100698.78
2022-09-28T11:21:11.962Z,100706.84
2022-09-28T11:23:42.163Z,100703.38
2022-09-28T11:26:17.637Z,100709.47
2022-09-28T11:28:52.890Z,100700.88
2022-09-28T11:31:28.136Z,100707.25
2022-09-28T11:34:14.574Z,100697.22
2022-09-28T11:37:01.876Z,100699.16
2022-09-28T11:39:39.871Z,100708.84
2022-09-28T11:42:18.690Z,100708.94
2022-09-28T11:44:49.399Z,100702.22
2022-09-28T11:47:38.775Z,100702.50
2022-09-28T11:50:18.955Z,100700.56
2022-09-28T11:52:56.746Z,100700.69
2022-09-28T11:55:33.146Z,100697.91
2022-09-28T11:58:06.150Z,100692.63
2022-09-28T12:00:43.167Z,100697.38
2022-09-28T12:03:17.287Z,100702.88
2022-09-28T12:05:50.425Z,100705.91
2022-09-28T12:08:25.443Z,100697.25
2022-09-28T12:10:58.875Z,100703.75
2022-09-28T12:13:29.686Z,100701.66
2022-09-28T12:16:32.656Z,100702.97
2022-09-28T12:21:37.848Z,100691.41
2022-09-28T12:24:14.991Z,100700.09
2022-09-28T12:26:48.710Z,100692.72
2022-09-28T12:29:22.050Z,100699.47
2022-09-28T12:32:07.112Z,100696.75
2022-09-28T12:34:35.037Z,100692.59
2022-09-28T12:37:16.815Z,100693.03
2022-09-28T12:40:00.185Z,100689.19
2022-09-28T12:42:53.020Z,100683.41
2022-09-28T12:46:09.744Z,100681.94
2022-09-28T12:51:59.668Z,100676.03
2022-09-28T12:54:42.087Z,100693.78
2022-09-28T12:57:30.994Z,100689.56
2022-09-28T13:00:04.907Z,100688.56
2022-09-28T13:03:00.815Z,100693.16
2022-09-28T13:05:46.945Z,100696.31
2022-09-28T13:08:22.156Z,100682.28
2022-09-28T13:11:06.912Z,100694.19
2022-09-28T13:13:45.362Z,100691.31
2022-09-28T13:16:21.488Z,100686.50
2022-09-28T13:18:58.188Z,100681.81
2022-09-28T13:21:35.662Z,100676.72
2022-09-28T13:24:20.898Z,100680.53
2022-09-28T13:26:55.503Z,100669.28
2022-09-28T13:29:24.512Z,100677.50
2022-09-28T13:31:55.746Z,100675.81
2022-09-28T13:34:26.716Z,100683.28
2022-09-28T13:37:24.801Z,100681.31
2022-09-28T13:39:55.281Z,100688.03
2022-09-28T13:42:40.765Z,100692.34
2022-09-28T13:45:27.919Z,100682.53
2022-09-28T13:48:14.039Z,100685.53
2022-09-28T13:51:15.614Z,100687.84
2022-09-28T13:54:08.047Z,100685.47
2022-09-28T13:56:44.216Z,100688.09
2022-09-28T13:59:23.133Z,100683.78
2022-09-28T14:01:57.413Z,100687.56
2022-09-28T14:04:47.703Z,100677.28
2022-09-28T14:07:21.497Z,100683.28
2022-09-28T14:10:16.857Z,100681.81
2022-09-28T14:12:47.340Z,100681.44
2022-09-28T14:15:40.374Z,100679.47
2022-09-28T14:18:25.028Z,100687.91
2022-09-28T14:21:06.756Z,100690.91
2022-09-28T14:23:59.956Z,100696.56
2022-09-28T14:27:11.239Z,100700.81
2022-09-28T14:29:40.103Z,100688.63
2022-09-28T14:32:23.806Z,100692.84
2022-09-28T14:34:57.931Z,100690.25
2022-09-28T14:37:47.167Z,100679.78
2022-09-28T14:40:40.679Z,100694.25
2022-09-28T14:43:27.415Z,100696.44
2022-09-28T14:46:33.901Z,100695.25
2022-09-28T14:49:03.692Z,100700.88
2022-09-28T14:52:03.236Z,100698.38
2022-09-28T14:54:41.729Z,100706.94
2022-09-28T14:57:18.311Z,100697.16
2022-09-28T14:59:48.324Z,100697.75
2022-09-28T15:02:22.775Z,100698.69
2022-09-28T15:04:54.643Z,100696.63
2022-09-28T15:07:25.091Z,100702.75
2022-09-28T15:09:54.647Z,100702.75
2022-09-28T15:12:26.192Z,100704.66
2022-09-28T15:15:02.197Z,100705.03
2022-09-28T15:17:37.006Z,100703.25
2022-09-28T15:20:23.802Z,100704.72
2022-09-28T15:22:55.047Z,100702.22
2022-09-28T15:25:26.105Z,100704.13
2022-09-28T15:27:55.455Z,100717.50
2022-09-28T15:30:27.659Z,100713.47
2022-09-28T15:33:17.693Z,100710.00
2022-09-28T15:35:47.726Z,100705.94
2022-09-28T15:38:18.257Z,100710.72
2022-09-28T15:40:47.578Z,100712.69
2022-09-28T15:43:33.134Z,100709.34
2022-09-28T15:46:07.558Z,100711.00
2022-09-28T15:48:42.072Z,100712.19
2022-09-28T15:51:12.066Z,100716.03
2022-09-28T15:53:44.931Z,100721.03
2022-09-28T15:56:13.054Z,100714.97
2022-09-28T15:58:40.969Z,100720.34
2022-09-28T16:01:37.895Z,100723.47
2022-09-28T16:04:38.355Z,100725.38
2022-09-28T16:07:24.303Z,100720.22
2022-09-28T16:10:00.067Z,100722.13
2022-09-28T16:12:32.123Z,100717.25
2022-09-28T16:15:05.214Z,100726.31
2022-09-28T16:17:36.453Z,100717.03
2022-09-28T16:20:19.690Z,100723.22
2022-09-28T16:22:47.915Z,100728.00
2022-09-28T16:25:22.086Z,100727.28
2022-09-28T16:27:49.942Z,100731.69
2022-09-28T16:30:24.431Z,100730.00
2022-09-28T16:32:58.573Z,100728.34
2022-09-28T16:35:29.187Z,100740.50
2022-09-28T16:38:00.671Z,100738.00
2022-09-28T16:40:29.531Z,100738.97
2022-09-28T16:43:02.948Z,100734.91
2022-09-28T16:45:31.004Z,100740.53
2022-09-28T16:48:00.479Z,100738.91
2022-09-28T16:50:28.746Z,100734.88
2022-09-28T16:53:45.165Z,100741.06
2022-09-28T16:56:13.914Z,100730.81
2022-09-28T16:58:42.434Z,100738.44
2022-09-28T17:01:12.971Z,100741.31
2022-09-28T17:03:46.636Z,100736.88
2022-09-28T17:06:16.060Z,100738.81
2022-09-28T17:08:44.742Z,100730.22
2022-09-28T17:11:20.180Z,100739.03
2022-09-28T17:13:51.908Z,100730.22
2022-09-28T17:16:32.568Z,100728.78
2022-09-28T17:19:13.984Z,100726.50
2022-09-28T17:21:41.915Z,100725.91
2022-09-28T17:24:09.725Z,100721.72
2022-09-28T17:26:37.548Z,100720.88
2022-09-28T17:29:08.751Z,100728.88
2022-09-28T17:31:36.571Z,100732.34
2022-09-28T17:34:04.396Z,100736.72
2022-09-28T17:36:33.622Z,100732.34
2022-09-28T17:39:01.552Z,100732.22
2022-09-28T17:41:29.367Z,100733.16
2022-09-28T17:43:57.209Z,100735.06
2022-09-28T17:46:29.391Z,100732.44
2022-09-28T17:48:59.457Z,100735.19
2022-09-28T17:51:28.522Z,100740.53
2022-09-28T17:53:58.299Z,100743.16
2022-09-28T17:56:31.627Z,100752.19
2022-09-28T17:59:01.350Z,100746.38
2022-09-28T18:01:33.959Z,100752.69
2022-09-28T18:04:02.818Z,100750.50
2022-09-28T18:06:32.206Z,100750.75
2022-09-28T18:09:01.867Z,100745.00
2022-09-28T18:11:29.909Z,100744.25
2022-09-28T18:13:57.763Z,100737.38
2022-09-28T18:16:27.899Z,100744.38
2022-09-28T18:18:55.947Z,100731.41
2022-09-28T18:21:23.726Z,100742.59
2022-09-28T18:23:52.055Z,100724.72
2022-09-28T18:26:21.280Z,100736.03
2022-09-28T18:28:49.148Z,100743.91
2022-09-28T18:31:19.127Z,100740.44
2022-09-28T18:33:48.317Z,100739.72
2022-09-28T18:36:16.131Z,100733.78
2022-09-28T18:38:43.941Z,100733.03
2022-09-28T18:41:15.694Z,100733.25
2022-09-28T18:43:49.957Z,100731.72
2022-09-28T18:46:19.030Z,100734.44
2022-09-28T18:48:47.757Z,100736.09
2022-09-28T18:51:15.985Z,100736.22
2022-09-28T18:53:43.815Z,100738.00
2022-09-28T18:56:13.184Z,100732.75
2022-09-28T18:58:42.746Z,100728.59
2022-09-28T19:01:31.362Z,100735.81
2022-09-28T19:04:01.254Z,100742.88
2022-09-28T19:06:29.833Z,100733.19
2022-09-28T19:08:58.834Z,100742.13
2022-09-28T19:11:26.907Z,100740.47
2022-09-28T19:13:55.981Z,100744.03
2022-09-28T19:16:26.798Z,100741.44
2022-09-28T19:18:54.787Z,100731.75
2022-09-28T19:21:22.760Z,100724.88
2022-09-28T19:23:50.758Z,100724.13
2022-09-28T19:26:21.464Z,100737.00
2022-09-28T19:28:49.644Z,100738.69
2022-09-28T19:31:18.404Z,100736.31
2022-09-28T19:33:48.236Z,100744.84
2022-09-28T19:36:18.479Z,100744.16
2022-09-28T19:38:47.107Z,100742.47
2022-09-28T19:41:39.517Z,100746.88
2022-09-28T19:44:13.507Z,100740.41
2022-09-28T19:46:41.636Z,100741.25
2022-09-28T19:49:19.366Z,100738.84
2022-09-28T19:52:11.504Z,100744.09
2022-09-28T19:54:37.630Z,100749.53
2022-09-28T19:57:07.723Z,100738.44
2022-09-28T19:59:36.595Z,100746.53
2022-09-28T20:02:05.103Z,100738.88
2022-09-28T20:04:34.710Z,100736.28
2022-09-28T20:07:02.671Z,100740.69
2022-09-28T20:09:30.650Z,100736.28
2022-09-28T20:11:58.438Z,100740.69
2022-09-28T20:14:31.814Z,100743.31
2022-09-28T20:17:02.191Z,100739.00
2022-09-28T20:19:29.978Z,100732.09
2022-09-28T20:22:02.727Z,100746.16
2022-09-28T20:24:31.291Z,100747.91
2022-09-28T20:27:00.682Z,100743.53
2022-09-28T20:29:28.482Z,100739.34
2022-09-28T20:31:56.746Z,100733.50
2022-09-28T20:34:24.607Z,100723.38
2022-09-28T20:36:52.406Z,100725.25
2022-09-28T20:39:21.638Z,100723.47
2022-09-28T20:41:49.545Z,100724.28
2022-09-28T20:44:17.547Z,100731.53
2022-09-28T20:46:45.531Z,100720.34
2022-09-28T20:49:13.385Z,100727.47
2022-09-28T20:51:41.190Z,100730.91
2022-09-28T20:54:09.323Z,100728.28
2022-09-28T20:56:38.977Z,100726.84
2022-09-28T20:59:09.691Z,100726.84
2022-09-28T21:01:37.579Z,100734.91
2022-09-28T21:04:06.790Z,100719.44
2022-09-28T21:06:36.308Z,100718.69
2022-09-28T21:09:05.417Z,100718.81
2022-09-28T21:11:35.591Z,100726.84
2022-09-28T21:14:06.850Z,100723.53
2022-09-28T21:16:36.462Z,100730.53
2022-09-28T21:19:04.925Z,100738.47
2022-09-28T21:21:32.766Z,100738.47
2022-09-28T21:24:00.679Z,100737.03
2022-09-28T21:26:30.335Z,100732.72
2022-09-28T21:29:00.283Z,100721.44
2022-09-28T21:31:32.708Z,100726.03
2022-09-28T21:34:00.886Z,100726.25
2022-09-28T21:36:28.675Z,100729.09
2022-09-28T21:38:56.551Z,100726.56
2022-09-28T21:41:24.875Z,100723.84
2022-09-28T21:43:52.714Z,100726.38
2022-09-28T21:46:20.658Z,100726.25
2022-09-28T21:48:54.310Z,100732.44
2022-09-28T21:51:22.601Z,100723.75
2022-09-28T21:53:50.433Z,100722.69
2022-09-28T21:56:18.796Z,100730.53
2022-09-28T21:58:46.703Z,100732.44
2022-09-28T22:01:18.151Z,100731.59
2022-09-28T22:03:48.595Z,100729.09
2022-09-28T22:06:19.418Z,100728.03
2022-09-28T22:08:48.427Z,100733.16
2022-09-28T22:11:18.660Z,100729.63
2022-09-28T22:13:48.366Z,100731.28
2022-09-28T22:16:18.089Z,100732.94
2022-09-28T22:18:46.646Z,100727.91
2022-09-28T22:21:16.174Z,100722.91
2022-09-28T22:23:45.472Z,100725.63
2022-09-28T22:26:18.004Z,100725.72
2022-09-28T22:28:47.941Z,100732.88
2022-09-28T22:31:16.493Z,100727.00
2022-09-28T22:33:44.947Z,100721.78
2022-09-28T22:36:15.012Z,100721.06
2022-09-28T22:38:43.408Z,100719.38
2022-09-28T22:41:13.634Z,100722.09
2022-09-28T22:43:41.519Z,100721.69
2022-09-28T22:46:12.005Z,100717.41
2022-09-28T22:48:40.201Z,100718.44
2022-09-28T22:51:08.302Z,100714.50
2022-09-28T22:53:36.895Z,100711.03
2022-09-28T22:56:06.992Z,100721.59
2022-09-28T22:58:37.505Z,100716.47
2022-09-28T23:01:09.395Z,100712.19
2022-09-28T23:03:40.122Z,100713.22
2022-09-28T23:06:08.545Z,100710.72
2022-09-28T23:08:37.082Z,100709.06
2022-09-28T23:11:05.350Z,100708.41
2022-09-28T23:13:33.857Z,100706.97
2022-09-28T23:16:05.141Z,100714.91
2022-09-28T23:18:34.631Z,100718.47
2022-09-28T23:21:04.413Z,100716.16
2022-09-28T23:23:32.793Z,100711.03
2022-09-28T23:26:02.033Z,100708.44
2022-09-28T23:28:30.475Z,100703.41
2022-09-28T23:31:10.832Z,100699.13
2022-09-28T23:33:38.518Z,100703.94
2022-09-28T23:36:07.222Z,100700.38
2022-09-28T23:38:35.537Z,100704.78
2022-09-28T23:41:03.384Z,100709.06
2022-09-28T23:43:31.223Z,100714.47
2022-09-28T23:45:59.055Z,100707.59
2022-09-28T23:48:28.246Z,100704.34
2022-09-28T23:50:56.089Z,100703.41
2022-09-28T23:53:23.917Z,100708.63
2022-09-28T23:55:51.828Z,100703.50
2022-09-28T23:58:19.865Z,100703.50
